Time;durP1;ratioP1;P1;durP2;ratioP2;P2;SDS_P1;SDS_P2;PMS_P1;PMS_P2;Temp;Humidity;BMP_temperature;BMP_pressure;BME280_temperature;BME280_humidity;BME280_pressure;Samples;Min_cycle;Max_cycle;Signal;HPM_P1;HPM_P2
2024/01/27 00:03:56;;;;;;;11.90;3.90;;;;;;;5.66;100.00;100772.87;104690;1276;5601670;-79
2024/01/27 00:12:31;;;;;;;13.00;3.90;;;;;;;5.63;100.00;100784.13;108268;1285;22186;-79
2024/01/27 00:15:48;;;;;;;14.10;4.30;;;;;;;5.62;100.00;100786.39;108466;1284;22013;-81
2024/01/27 00:19:06;;;;;;;11.40;3.50;;;;;;;5.57;100.00;100786.44;108013;1292;22024;-79
2024/01/27 00:25:35;;;;;;;;;;;;;;;;;;;;;
2024/01/27 00:28:44;;;;;;;17.80;4.50;;;;;;;5.54;100.00;100793.20;106880;1305;23097;-80
2024/01/27 00:47:56;;;;;;;;;;;;;;;;;;;;;
2024/01/27 00:56:36;;;;;;;;;;;;;;;;;;;;;
2024/01/27 01:04:09;;;;;;;11.80;4.60;;;;;;;5.89;100.00;100824.95;109548;1270;23055;-79
2024/01/27 01:07:36;;;;;;;;;;;;;;;;;;;;;
2024/01/27 01:10:22;;;;;;;16.50;4.40;;;;;;;5.79;100.00;100833.86;109190;1273;22093;-80
2024/01/27 01:13:58;;;;;;;15.00;4.90;;;;;;;5.77;100.00;100840.62;109096;1273;21988;-80
2024/01/27 01:33:12;;;;;;;11.10;4.50;;;;;;;7.13;100.00;100847.83;108514;1286;548766;-78
2024/01/27 01:37:13;;;;;;;;;;;;;;;;;;;;;
2024/01/27 01:45:13;;;;;;;18.80;4.30;;;;;;;6.19;100.00;100855.23;107348;1299;22066;-80
2024/01/27 01:52:10;;;;;;;17.70;4.20;;;;;;;5.86;100.00;100867.65;106499;1307;23074;-79
2024/01/27 01:55:49;;;;;;;14.90;3.70;;;;;;;5.78;100.00;100864.10;106543;1307;22087;-80
2024/01/27 01:59:34;;;;;;;17.20;4.00;;;;;;;5.72;100.00;100867.61;106595;1307;22947;-77
2024/01/27 02:14:30;;;;;;;;;;;;;;;;;;;;;
2024/01/27 02:19:07;;;;;;;;;;;;;;;;;;;;;
2024/01/27 02:23:50;;;;;;;;;;;;;;;;;;;;;
2024/01/27 02:28:37;;;;;;;;;;;;;;;;;;;;;
2024/01/27 02:42:31;;;;;;;;;;;;;;;;;;;;;
2024/01/27 03:21:07;;;;;;;;;;;;;;;;;;;;;
2024/01/27 03:25:15;;;;;;;12.80;4.20;;;;;;;6.38;100.00;100879.03;107281;1253;22522;-80
2024/01/27 03:32:35;;;;;;;;;;;;;;;;;;;;;
2024/01/27 03:36:00;;;;;;;;;;;;;;;;;;;;;
2024/01/27 03:40:09;;;;;;;19.30;4.30;;;;;;;5.58;100.00;100892.07;110299;1265;22124;-81
2024/01/27 03:43:30;;;;;;;17.40;4.10;;;;;;;5.46;100.00;100894.08;110425;1260;22016;-81
2024/01/27 03:47:07;;;;;;;19.30;4.60;;;;;;;5.35;100.00;100898.14;110625;1260;22399;-81
2024/01/27 03:50:44;;;;;;;16.00;4.50;;;;;;;5.29;100.00;100901.29;110872;1260;23073;-80
2024/01/27 03:55:05;;;;;;;17.90;4.90;;;;;;;5.25;100.00;100907.88;110376;1264;22025;-81
2024/01/27 03:59:09;;;;;;;;;;;;;;;;;;;;;
2024/01/27 04:03:08;;;;;;;;;;;;;;;;;;;;;
2024/01/27 04:11:15;;;;;;;22.40;5.60;;;;;;;5.21;100.00;100916.70;110400;1265;22526;-80
2024/01/27 04:15:21;;;;;;;;;;;;;;;;;;;;;
2024/01/27 04:33:58;;;;;;;;;;;;;;;;;;;;;
2024/01/27 04:37:59;;;;;;;19.60;5.80;;;;;;;6.53;100.00;100896.29;107384;1275;22735;-79
2024/01/27 04:42:36;;;;;;;;;;;;;;;;;;;;;
2024/01/27 04:45:59;;;;;;;14.50;4.40;;;;;;;5.46;100.00;100883.20;108173;1292;23058;-81
2024/01/27 04:49:04;;;;;;;16.30;5.20;;;;;;;5.47;100.00;100900.11;108001;1293;22009;-83
2024/01/27 04:52:12;;;;;;;14.60;4.50;;;;;;;5.38;100.00;100905.88;107958;1282;22119;-81
2024/01/27 04:59:25;;;;;;;;;;;;;;;;;;;;;
2024/01/27 05:02:31;;;;;;;11.10;3.20;;;;;;;5.21;100.00;100915.48;107799;1295;22026;-81
2024/01/27 05:05:40;;;;;;;;;;;;;;;;;;;;;
2024/01/27 05:08:40;;;;;;;14.00;4.40;;;;;;;5.09;100.00;100911.95;107356;1300;22008;-81
2024/01/27 05:11:52;;;;;;;;;;;;;;;;;;;;;
2024/01/27 05:15:26;;;;;;;;;;;;;;;;;;;;;
2024/01/27 05:19:13;;;;;;;;;;;;;;;;;;;;;
2024/01/27 05:30:48;;;;;;;18.20;4.40;;;;;;;4.82;100.00;100886.58;108613;1281;22004;-78
2024/01/27 05:34:39;;;;;;;16.50;4.40;;;;;;;4.89;100.00;100911.89;108453;1282;21992;-78
2024/01/27 05:37:41;;;;;;;11.70;3.60;;;;;;;4.79;100.00;100903.67;108729;1280;22005;-79
2024/01/27 05:41:47;;;;;;;;;;;;;;;;;;;;;
2024/01/27 05:50:44;;;;;;;;;;;;;;;;;;;;;
2024/01/27 05:58:02;;;;;;;;;;;;;;;;;;;;;
2024/01/27 06:13:39;;;;;;;;;;;;;;;;;;;;;
2024/01/27 06:18:25;;;;;;;17.70;5.10;;;;;;;6.15;100.00;100953.90;106668;1259;23024;-77
2024/01/27 06:50:34;;;;;;;18.20;5.20;;;;;;;6.09;100.00;100951.02;106556;1264;21972;-79
2024/01/27 07:10:38;;;;;;;;;;;;;;;;;;;;;
2024/01/27 07:14:12;;;;;;;14.90;4.90;;;;;;;6.14;100.00;100965.15;106968;1281;21995;-78
2024/01/27 07:18:25;;;;;;;;;;;;;;;;;;;;;
2024/01/27 07:27:11;;;;;;;;;;;;;;;;;;;;;
2024/01/27 07:30:03;;;;;;;21.60;5.80;;;;;;;4.98;100.00;100982.73;107347;1299;25052;-77
2024/01/27 07:38:11;;;;;;;;;;;;;;;;;;;;;
2024/01/27 07:42:49;;;;;;;;;;;;;;;;;;;;;
2024/01/27 07:46:31;;;;;;;;;;;;;;;;;;;;;
2024/01/27 07:50:23;;;;;;;;;;;;;;;;;;;;;
2024/01/27 07:54:15;;;;;;;;;;;;;;;;;;;;;
2024/01/27 07:57:58;;;;;;;;;;;;;;;;;;;;;
2024/01/27 08:01:18;;;;;;;24.20;6.10;;;;;;;4.68;100.00;101016.48;108496;1286;23637;-78
2024/01/27 08:08:39;;;;;;;19.90;5.40;;;;;;;4.62;100.00;101014.42;107579;1295;23660;-77
2024/01/27 08:11:21;;;;;;;17.00;4.90;;;;;;;4.71;100.00;101020.27;107712;1292;22001;-78
2024/01/27 08:13:52;;;;;;;16.80;5.50;;;;;;;4.77;100.00;101008.69;107573;1292;22026;-79
2024/01/27 08:20:13;;;;;;;21.30;5.90;;;;;;;4.91;100.00;101027.95;107207;1301;22779;-78
2024/01/27 08:22:51;;;;;;;17.70;6.60;;;;;;;4.95;100.00;101030.20;107170;1301;24362;-77
2024/01/27 08:25:39;;;;;;;20.00;8.30;;;;;;;5.03;100.00;101027.39;107479;1298;22023;-80
2024/01/27 08:28:25;;;;;;;29.20;8.20;;;;;;;5.11;100.00;101023.56;107241;1299;22028;-80
2024/01/27 08:31:18;;;;;;;24.50;8.70;;;;;;;5.08;100.00;101024.27;107516;1299;23777;-81
2024/01/27 08:34:14;;;;;;;27.30;9.20;;;;;;;5.16;100.00;101038.73;107834;1291;23312;-80
2024/01/27 08:36:58;;;;;;;28.40;10.40;;;;;;;5.15;100.00;101039.08;108076;1285;22021;-80
2024/01/27 08:39:40;;;;;;;27.30;8.00;;;;;;;5.12;100.00;101044.26;108677;1285;22055;-80
2024/01/27 08:42:26;;;;;;;29.20;10.20;;;;;;;5.10;100.00;101049.44;108454;1287;23419;-80
2024/01/27 08:44:53;;;;;;;19.10;8.30;;;;;;;5.07;100.00;101057.21;108429;1282;22005;-79
2024/01/27 08:47:27;;;;;;;29.10;11.00;;;;;;;5.05;100.00;101065.16;108769;1270;23056;-79
2024/01/27 08:50:06;;;;;;;25.60;7.60;;;;;;;5.04;100.00;101068.10;108462;1281;21993;-79
2024/01/27 08:52:49;;;;;;;25.00;8.20;;;;;;;5.04;100.00;101076.04;108423;1282;22017;-80
2024/01/27 08:55:40;;;;;;;22.00;8.10;;;;;;;5.03;100.00;101086.73;108596;1282;22005;-79
2024/01/27 08:58:20;;;;;;;20.40;6.50;;;;;;;5.00;100.00;101083.63;109428;1267;22453;-79
2024/01/27 09:01:26;;;;;;;14.50;6.10;;;;;;;4.93;100.00;101094.01;109387;1272;21983;-77
2024/01/27 09:04:12;;;;;;;23.40;7.90;;;;;;;4.88;100.00;101095.40;109122;1272;22556;-78
2024/01/27 09:06:50;;;;;;;22.20;7.20;;;;;;;4.79;100.00;101098.35;109998;1266;23049;-79
2024/01/27 09:09:44;;;;;;;19.20;6.30;;;;;;;4.69;100.00;101105.10;110212;1266;22133;-79
2024/01/27 09:12:29;;;;;;;25.60;6.60;;;;;;;4.58;100.00;101115.98;110075;1265;22578;-78
2024/01/27 09:15:05;;;;;;;28.20;9.50;;;;;;;4.52;100.00;101115.45;110366;1265;21972;-78
2024/01/27 09:17:49;;;;;;;19.60;10.30;;;;;;;4.48;100.00;101117.88;109304;1272;22044;-78
2024/01/27 09:20:36;;;;;;;26.50;8.00;;;;;;;4.45;100.00;101117.00;109459;1272;22741;-78
2024/01/27 09:23:41;;;;;;;28.10;8.00;;;;;;;4.41;100.00;101126.48;109037;1276;21989;-78
2024/01/27 09:26:22;;;;;;;23.00;6.60;;;;;;;4.38;100.00;101132.52;109193;1271;23068;-78
2024/01/27 09:29:20;;;;;;;23.90;8.50;;;;;;;4.37;100.00;101139.08;109398;1271;22233;-80
2024/01/27 09:32:09;;;;;;;21.30;5.90;;;;;;;4.39;100.00;101141.66;109357;1271;22875;-77
2024/01/27 09:34:39;;;;;;;19.60;6.70;;;;;;;4.39;100.00;101141.83;108959;1275;21998;-78
2024/01/27 09:37:19;;;;;;;20.00;6.30;;;;;;;4.37;100.00;101150.79;109728;1272;21999;-78
2024/01/27 09:40:24;;;;;;;22.10;6.90;;;;;;;4.33;100.00;101154.23;109780;1271;22002;-80
2024/01/27 09:43:02;;;;;;;17.60;5.90;;;;;;;4.33;100.00;101153.89;109533;1271;22187;-76
2024/01/27 09:45:47;;;;;;;17.90;6.00;;;;;;;4.33;100.00;101159.57;109561;1272;22000;-77
2024/01/27 09:51:33;;;;;;;21.80;6.00;;;;;;;4.18;100.00;101155.60;109327;1272;22843;-79
2024/01/27 09:54:23;;;;;;;16.30;5.70;;;;;;;4.25;100.00;101171.45;109676;1268;22864;-78
2024/01/27 09:57:34;;;;;;;18.80;6.40;;;;;;;4.23;100.00;101174.21;109250;1272;21989;-77
2024/01/27 10:01:00;;;;;;;20.70;6.30;;;;;;;4.23;100.00;101179.73;109271;1268;23634;-77
2024/01/27 10:04:00;;;;;;;27.20;8.90;;;;;;;4.23;100.00;101179.21;109381;1271;23043;-78
2024/01/27 10:06:58;;;;;;;21.30;10.10;;;;;;;4.24;100.00;101181.45;109233;1273;21994;-77
2024/01/27 10:09:41;;;;;;;20.20;7.80;;;;;;;4.26;100.00;101181.80;109276;1271;21986;-78
2024/01/27 10:13:03;;;;;;;18.80;5.80;;;;;;;4.28;100.00;101181.10;108748;1279;22000;-79
2024/01/27 10:16:15;;;;;;;26.30;9.40;;;;;;;4.28;100.00;101184.91;109061;1273;22999;-78
2024/01/27 10:19:19;;;;;;;19.90;8.40;;;;;;;4.30;100.00;101186.80;108954;1276;22007;-79
2024/01/27 10:22:18;;;;;;;21.80;6.10;;;;;;;4.34;100.00;101197.16;108678;1279;23768;-79
2024/01/27 10:25:02;;;;;;;24.50;7.20;;;;;;;4.37;100.00;101199.90;108872;1275;21987;-79
2024/01/27 10:27:47;;;;;;;20.30;7.70;;;;;;;4.38;100.00;101199.56;109216;1275;21988;-78
2024/01/27 10:30:37;;;;;;;23.80;8.20;;;;;;;4.40;100.00;101202.66;109173;1274;22005;-79
2024/01/27 10:33:14;;;;;;;19.80;6.80;;;;;;;4.41;100.00;101204.05;108649;1280;23595;-80
2024/01/27 10:36:30;;;;;;;18.30;6.60;;;;;;;4.41;100.00;101209.90;108748;1276;22328;-78
2024/01/27 10:39:26;;;;;;;20.20;6.30;;;;;;;4.39;100.00;101208.70;108836;1276;22975;-78
2024/01/27 10:42:16;;;;;;;25.30;7.10;;;;;;;4.37;100.00;101208.87;109610;1269;22011;-78
2024/01/27 10:45:04;;;;;;;16.10;6.80;;;;;;;4.38;100.00;101217.48;109601;1271;23819;-76
2024/01/27 10:51:25;;;;;;;18.90;6.00;;;;;;;4.36;100.00;101219.21;110008;1262;22000;-78
2024/01/27 10:54:14;;;;;;;22.50;6.60;;;;;;;4.35;100.00;101224.73;110125;1266;21972;-79
2024/01/27 10:57:05;;;;;;;17.90;5.80;;;;;;;4.35;100.00;101224.88;109866;1265;22575;-78
2024/01/27 10:59:52;;;;;;;19.30;7.10;;;;;;;4.35;100.00;101224.38;109604;1271;22757;-76
2024/01/27 11:02:38;;;;;;;20.90;6.10;;;;;;;4.37;100.00;101226.62;109143;1274;21997;-78
2024/01/27 11:05:22;;;;;;;19.70;6.00;;;;;;;4.41;100.00;101230.07;109002;1275;22458;-79
2024/01/27 11:07:59;;;;;;;19.70;7.20;;;;;;;4.42;100.00;101236.29;109170;1274;21986;-78
2024/01/27 11:10:46;;;;;;;23.50;7.90;;;;;;;4.45;100.00;101232.33;108917;1276;21990;-79
2024/01/27 11:13:45;;;;;;;17.00;6.40;;;;;;;4.49;100.00;101241.98;108767;1278;21999;-76
2024/01/27 11:16:43;;;;;;;17.70;6.60;;;;;;;4.50;100.00;101239.05;108857;1278;21992;-76
2024/01/27 11:19:27;;;;;;;21.10;7.00;;;;;;;4.51;100.00;101242.16;108912;1277;22269;-77
2024/01/27 11:22:32;;;;;;;22.80;7.10;;;;;;;4.53;100.00;101244.57;109068;1274;23125;-77
2024/01/27 11:25:25;;;;;;;22.10;6.60;;;;;;;4.54;100.00;101238.70;109388;1271;21990;-77
2024/01/27 11:28:20;;;;;;;18.30;6.10;;;;;;;4.56;100.00;101245.78;109486;1267;23731;-78
2024/01/27 11:31:28;;;;;;;18.10;6.20;;;;;;;4.59;100.00;101251.64;110194;1262;24464;-79
2024/01/27 11:34:21;;;;;;;21.90;6.30;;;;;;;4.61;100.00;101251.82;110735;1261;21991;-81
2024/01/27 11:37:19;;;;;;;18.90;6.70;;;;;;;4.65;100.00;101254.23;110642;1263;21978;-80
2024/01/27 11:40:07;;;;;;;23.30;7.60;;;;;;;4.72;100.00;101262.88;110809;1256;21995;-80
2024/01/27 11:43:15;;;;;;;21.70;7.60;;;;;;;4.76;100.00;101262.01;110572;1263;22029;-79
2024/01/27 11:46:12;;;;;;;;;;;;;;;;;;;;;
2024/01/27 11:49:04;;;;;;;23.10;7.50;;;;;;;4.87;100.00;101275.80;110374;1263;21999;-82
2024/01/27 11:52:15;;;;;;;15.40;6.00;;;;;;;4.92;100.00;101283.58;110466;1263;21994;-78
2024/01/27 11:55:11;;;;;;;15.40;7.20;;;;;;;4.95;100.00;101288.41;110512;1263;22751;-80
2024/01/27 11:58:22;;;;;;;15.80;5.50;;;;;;;5.00;100.00;101299.11;110487;1266;21989;-77
2024/01/27 12:01:28;;;;;;;21.50;8.60;;;;;;;5.05;100.00;101305.83;110267;1266;23032;-79
2024/01/27 12:04:54;;;;;;;22.70;7.70;;;;;;;5.07;100.00;101318.61;110150;1266;22056;-78
2024/01/27 12:07:56;;;;;;;19.40;7.00;;;;;;;5.07;100.00;101329.98;108949;1277;22031;-80
2024/01/27 12:10:53;;;;;;;18.80;7.40;;;;;;;5.08;100.00;101330.34;109162;1277;22749;-79
2024/01/27 12:13:59;;;;;;;19.60;8.00;;;;;;;5.11;100.00;101335.52;109102;1271;22013;-79
2024/01/27 12:16:47;;;;;;;26.60;8.10;;;;;;;5.20;100.00;101335.16;109501;1271;22460;-79
2024/01/27 12:19:47;;;;;;;20.30;7.70;;;;;;;5.26;100.00;101334.14;109277;1271;22525;-78
2024/01/27 12:22:37;;;;;;;21.40;8.00;;;;;;;5.28;100.00;101338.45;108967;1274;21986;-78
2024/01/27 12:25:29;;;;;;;19.70;7.50;;;;;;;5.32;100.00;101344.30;108786;1267;21986;-78
2024/01/27 12:28:07;;;;;;;21.40;7.70;;;;;;;5.35;100.00;101348.11;108861;1277;21987;-77
2024/01/27 12:30:59;;;;;;;25.50;9.20;;;;;;;5.37;100.00;101350.52;108800;1278;22000;-78
2024/01/27 12:33:42;;;;;;;17.10;7.10;;;;;;;5.40;100.00;101350.70;108817;1277;21995;-77
2024/01/27 12:36:46;;;;;;;19.70;6.00;;;;;;;5.41;100.00;101358.98;108750;1281;22013;-77
2024/01/27 12:39:43;;;;;;;18.70;7.90;;;;;;;5.43;100.00;101360.19;108900;1278;22205;-78
2024/01/27 12:42:43;;;;;;;18.40;6.70;;;;;;;5.45;100.00;101365.71;109138;1270;21982;-78
2024/01/27 12:45:30;;;;;;;23.30;8.30;;;;;;;5.48;100.00;101366.58;110081;1263;22035;-78
2024/01/27 12:48:41;;;;;;;22.50;7.80;;;;;;;5.51;100.00;101369.52;110133;1266;21964;-77
2024/01/27 12:51:45;;;;;;;20.10;8.60;;;;;;;5.56;100.00;101368.29;109921;1266;23089;-79
2024/01/27 12:54:26;;;;;;;18.90;8.20;;;;;;;5.58;100.00;101373.98;110242;1266;24353;-78
2024/01/27 12:57:20;;;;;;;21.40;8.50;;;;;;;5.61;100.00;101378.64;110112;1266;23055;-76
2024/01/27 13:00:15;;;;;;;20.80;8.10;;;;;;;5.64;100.00;101384.01;110046;1262;21973;-77
2024/01/27 13:02:45;;;;;;;22.10;8.10;;;;;;;5.66;100.00;101388.66;110604;1262;23823;-78
2024/01/27 13:05:23;;;;;;;19.30;6.90;;;;;;;5.68;100.00;101392.98;110461;1262;21989;-79
2024/01/27 13:08:08;;;;;;;19.90;7.50;;;;;;;5.64;100.00;101388.84;109712;1255;23078;-76
2024/01/27 13:10:50;;;;;;;20.30;6.30;;;;;;;5.70;100.00;101402.66;109948;1267;22081;-76
2024/01/27 13:14:14;;;;;;;20.00;6.30;;;;;;;5.74;100.00;101413.52;109946;1268;22009;-78
2024/01/27 13:17:06;;;;;;;18.80;8.30;;;;;;;5.79;100.00;101419.39;109500;1271;22436;-77
2024/01/27 13:19:50;;;;;;;21.90;6.90;;;;;;;5.83;100.00;101422.84;108883;1277;21998;-78
2024/01/27 13:22:31;;;;;;;20.50;6.50;;;;;;;5.86;100.00;101422.33;108909;1277;22455;-77
2024/01/27 13:25:17;;;;;;;21.80;7.50;;;;;;;5.88;100.00;101422.66;108855;1268;24392;-77
2024/01/27 13:28:01;;;;;;;20.20;6.50;;;;;;;5.88;100.00;101427.34;110095;1266;22017;-77
2024/01/27 13:30:39;;;;;;;22.80;6.30;;;;;;;5.86;100.00;101429.58;109539;1270;22901;-78
2024/01/27 13:33:30;;;;;;;19.90;6.60;;;;;;;5.88;100.00;101428.71;109748;1270;23067;-77
2024/01/27 13:36:31;;;;;;;13.30;5.90;;;;;;;5.88;100.00;101432.34;109549;1270;23744;-78
2024/01/27 13:39:31;;;;;;;15.60;6.60;;;;;;;5.90;100.00;101433.55;110127;1265;23710;-76
2024/01/27 13:42:22;;;;;;;20.40;6.70;;;;;;;5.94;100.00;101445.47;110303;1259;21976;-78
2024/01/27 13:45:08;;;;;;;19.60;6.00;;;;;;;5.98;100.00;101449.98;110274;1265;22469;-76
2024/01/27 13:47:46;;;;;;;19.30;7.20;;;;;;;6.02;100.00;101451.37;110524;1260;22173;-78
2024/01/27 13:50:22;;;;;;;19.70;7.10;;;;;;;6.04;100.00;101454.98;110628;1260;23628;-78
2024/01/27 13:53:17;;;;;;;17.30;6.80;;;;;;;6.04;100.00;101459.65;110404;1263;21969;-79
2024/01/27 13:55:55;;;;;;;13.70;6.70;;;;;;;6.04;100.00;101464.84;110113;1253;21986;-78
2024/01/27 13:58:41;;;;;;;18.00;5.90;;;;;;;6.05;100.00;101473.13;110270;1265;21975;-78
2024/01/27 14:01:28;;;;;;;14.80;5.60;;;;;;;6.05;100.00;101477.27;110088;1264;23835;-79
2024/01/27 14:04:30;;;;;;;23.80;6.80;;;;;;;6.04;100.00;101483.84;110359;1265;22771;-77
2024/01/27 14:07:25;;;;;;;;;;;;;;;5.94;100.00;101481.08;109829;1269;21968;-79
2024/01/27 14:10:52;;;;;;;21.00;6.20;;;;;;;5.90;100.00;101497.66;109875;1269;21976;-78
2024/01/27 14:14:10;;;;;;;19.50;6.10;;;;;;;5.87;100.00;101506.29;109797;1263;21975;-81
2024/01/27 14:17:30;;;;;;;22.80;6.20;;;;;;;5.87;100.00;101511.13;109792;1269;22743;-77
2024/01/27 14:20:29;;;;;;;15.30;5.90;;;;;;;5.87;100.00;101509.75;109844;1255;23036;-80
2024/01/27 14:23:10;;;;;;;16.60;5.40;;;;;;;5.90;100.00;101518.03;109796;1268;23087;-77
2024/01/27 14:25:51;;;;;;;16.90;5.40;;;;;;;5.93;100.00;101519.06;109866;1266;22201;-80
2024/01/27 14:28:31;;;;;;;16.20;5.10;;;;;;;5.90;100.00;101516.83;109930;1267;24315;-77
2024/01/27 14:31:21;;;;;;;;;;;;;;;;;;;;;
2024/01/27 14:34:03;;;;;;;18.20;6.30;;;;;;;5.94;100.00;101533.60;110125;1266;22006;-79
2024/01/27 14:36:55;;;;;;;20.40;7.10;;;;;;;5.94;100.00;101537.39;109615;1266;21999;-78
2024/01/27 14:39:56;;;;;;;18.80;6.20;;;;;;;5.91;100.00;101544.98;109461;1270;23089;-78
2024/01/27 14:43:11;;;;;;;;;;;;;;;;;;;;;
2024/01/27 14:46:32;;;;;;;17.30;6.60;;;;;;;5.81;100.00;101558.97;109991;1268;21983;-77
2024/01/27 14:49:50;;;;;;;22.10;7.00;;;;;;;5.77;100.00;101568.98;110019;1267;21985;-82
2024/01/27 14:52:54;;;;;;;21.60;6.70;;;;;;;5.79;100.00;101572.10;110169;1263;23043;-78
2024/01/27 14:55:54;;;;;;;21.50;7.00;;;;;;;5.80;100.00;101582.64;109201;1273;24474;-77
2024/01/27 14:59:38;;;;;;;17.50;6.80;;;;;;;5.79;100.00;101588.33;109761;1269;21985;-79
2024/01/27 15:03:05;;;;;;;;;;;;;;;;;;;;;
2024/01/27 15:06:19;;;;;;;;;;;;;;;;;;;;;
2024/01/27 15:09:18;;;;;;;;;;;;;;;;;;;;;
2024/01/27 15:12:45;;;;;;;;;;;;;;;;;;;;;
2024/01/27 15:15:54;;;;;;;15.10;6.90;;;;;;;5.65;100.00;101631.47;108982;1264;23039;-79
2024/01/27 15:18:43;;;;;;;23.20;6.80;;;;;;;5.62;100.00;101635.11;108844;1277;23682;-78
2024/01/27 15:21:47;;;;;;;22.20;6.40;;;;;;;5.62;100.00;101640.62;108882;1277;22266;-76
2024/01/27 15:25:07;;;;;;;17.90;6.50;;;;;;;5.58;100.00;101651.31;108852;1277;24315;-78
2024/01/27 15:28:26;;;;;;;26.50;7.60;;;;;;;5.54;100.00;101655.62;108767;1278;21994;-81
2024/01/27 15:32:28;;;;;;;;;;;;;;;;;;;;;
2024/01/27 15:36:44;;;;;;;;;;;;;;;;;;;;;
2024/01/27 15:40:14;;;;;;;20.10;7.30;;;;;;;5.31;100.00;101679.52;109108;1275;21993;-83
2024/01/27 15:43:54;;;;;;;25.50;7.70;;;;;;;5.28;100.00;101688.48;109037;1275;21993;-76
2024/01/27 15:46:51;;;;;;;24.30;8.00;;;;;;;5.26;100.00;101698.30;108817;1278;23640;-75
2024/01/27 15:50:08;;;;;;;21.80;8.00;;;;;;;5.27;100.00;101708.66;109053;1274;23199;-79
2024/01/27 15:52:57;;;;;;;25.90;9.10;;;;;;;5.26;100.00;101716.77;109127;1274;21989;-77
2024/01/27 15:56:17;;;;;;;20.50;8.50;;;;;;;5.24;100.00;101722.80;109161;1274;22046;-75
2024/01/27 16:00:09;;;;;;;;;;;;;;;;;;;;;
2024/01/27 16:03:23;;;;;;;23.80;8.30;;;;;;;5.13;100.00;101737.23;108987;1278;22019;-77
2024/01/27 16:06:53;;;;;;;27.70;9.70;;;;;;;4.96;100.00;101730.21;108393;1284;23946;-79
2024/01/27 16:09:53;;;;;;;26.80;9.30;;;;;;;4.99;100.00;101747.66;108501;1283;23088;-78
2024/01/27 16:12:45;;;;;;;21.80;8.80;;;;;;;4.96;100.00;101751.09;108657;1278;23527;-77
2024/01/27 16:16:21;;;;;;;;;;;;;;;;;;;;;
2024/01/27 16:19:48;;;;;;;24.00;7.90;;;;;;;4.90;100.00;101757.23;108514;1283;22437;-79
2024/01/27 16:22:30;;;;;;;26.40;8.70;;;;;;;4.91;100.00;101767.59;108198;1284;22020;-80
2024/01/27 16:25:42;;;;;;;25.40;8.30;;;;;;;4.90;100.00;101768.62;108871;1278;22043;-82
2024/01/27 16:28:40;;;;;;;17.10;7.60;;;;;;;4.90;100.00;101775.17;109198;1277;23659;-78
2024/01/27 16:31:33;;;;;;;20.80;9.10;;;;;;;4.88;100.00;101779.83;109226;1275;21975;-77
2024/01/27 16:34:09;;;;;;;23.70;9.10;;;;;;;4.86;100.00;101785.50;109631;1268;24110;-78
2024/01/27 16:37:05;;;;;;;19.20;9.70;;;;;;;4.83;100.00;101786.69;109965;1262;21969;-78
2024/01/27 16:40:20;;;;;;;22.50;9.80;;;;;;;4.69;100.00;101778.96;110659;1256;21964;-78
2024/01/27 16:42:59;;;;;;;17.90;8.10;;;;;;;4.69;100.00;101778.27;110989;1256;22739;-77
2024/01/27 16:45:59;;;;;;;;;;;;;;;;;;;;;
2024/01/27 16:49:02;;;;;;;20.60;8.90;;;;;;;4.71;100.00;101806.74;110920;1256;22020;-78
2024/01/27 16:51:45;;;;;;;24.70;8.90;;;;;;;4.71;100.00;101811.56;111013;1256;21965;-77
2024/01/27 16:54:42;;;;;;;;;;;;;;;4.70;100.00;101817.09;111004;1256;21951;-78
2024/01/27 16:57:27;;;;;;;24.10;8.20;;;;;;;4.62;100.00;101820.96;111109;1256;22061;-79
2024/01/27 17:00:14;;;;;;;24.10;8.90;;;;;;;4.60;100.00;101827.33;110863;1256;21967;-78
2024/01/27 17:03:28;;;;;;;20.00;9.70;;;;;;;4.61;100.00;101833.55;110670;1261;21993;-78
2024/01/27 17:06:08;;;;;;;31.90;10.80;;;;;;;4.61;100.00;101841.31;110516;1261;21984;-78
2024/01/27 17:09:01;;;;;;;23.50;8.00;;;;;;;4.60;100.00;101846.13;109790;1267;21984;-77
2024/01/27 17:11:46;;;;;;;25.80;9.20;;;;;;;4.59;100.00;101850.77;109942;1268;22335;-78
2024/01/27 17:14:20;;;;;;;25.30;10.90;;;;;;;4.57;100.00;101855.58;109772;1268;23807;-79
2024/01/27 17:17:44;;;;;;;21.20;8.90;;;;;;;4.55;100.00;101858.66;109951;1268;22057;-78
2024/01/27 17:20:31;;;;;;;23.40;7.20;;;;;;;4.50;100.00;101867.21;109121;1265;23148;-76
2024/01/27 17:23:30;;;;;;;20.40;8.80;;;;;;;4.49;100.00;101871.34;109314;1273;22197;-81
2024/01/27 17:26:17;;;;;;;19.90;7.90;;;;;;;4.53;100.00;101872.77;109243;1268;23047;-78
2024/01/27 17:29:48;;;;;;;22.90;8.10;;;;;;;4.58;100.00;101878.69;110326;1267;21967;-78
2024/01/27 17:33:39;;;;;;;22.10;8.30;;;;;;;4.46;100.00;101873.73;110238;1267;21994;-77
2024/01/27 17:37:20;;;;;;;19.70;9.20;;;;;;;4.53;100.00;101892.42;109756;1269;22034;-80
2024/01/27 17:42:01;;;;;;;27.50;10.40;;;;;;;4.49;100.00;101904.27;109006;1275;22011;-80
2024/01/27 17:46:22;;;;;;;;;;;;;;;;;;;;;
2024/01/27 17:49:59;;;;;;;;;;;;;;;;;;;;;
2024/01/27 17:53:14;;;;;;;;;;;;;;;;;;;;;
2024/01/27 18:00:51;;;;;;;;;;;;;;;;;;;;;
2024/01/27 18:19:42;;;;;;;44.30;28.30;;;;;;;6.00;100.00;101927.48;111131;1257;548362;-80
2024/01/27 18:23:34;;;;;;;;;;;;;;;;;;;;;
2024/01/27 18:27:19;;;;;;;27.00;13.00;;;;;;;5.56;100.00;101952.32;112656;1243;23168;-80
2024/01/27 18:31:30;;;;;;;;;;;;;;;;;;;;;
2024/01/27 18:35:42;;;;;;;;;;;;;;;;;;;;;
2024/01/27 18:40:04;;;;;;;;;;;;;;;;;;;;;
2024/01/27 18:44:17;;;;;;;32.40;13.20;;;;;;;5.00;100.00;101982.13;110411;1262;22049;-79
2024/01/27 18:48:08;;;;;;;34.60;14.00;;;;;;;4.93;100.00;101990.16;109696;1267;21983;-81
2024/01/27 18:51:35;;;;;;;28.70;11.70;;;;;;;4.92;100.00;101996.02;110066;1266;23745;-82
2024/01/27 18:59:07;;;;;;;27.70;10.70;;;;;;;4.83;100.00;101995.04;109344;1272;22846;-80
2024/01/27 19:06:48;;;;;;;26.10;11.20;;;;;;;4.92;100.00;102014.83;108426;1283;22286;-78
2024/01/27 19:10:13;;;;;;;24.40;10.80;;;;;;;4.95;100.00;102017.27;108366;1283;22048;-81
2024/01/27 19:17:44;;;;;;;;;;;;;;;;;;;;;
2024/01/27 19:20:59;;;;;;;32.00;11.60;;;;;;;5.01;100.00;102016.30;109214;1276;22763;-80
2024/01/27 19:24:37;;;;;;;;;;;;;;;;;;;;;
2024/01/27 19:28:33;;;;;;;;;;;;;;;;;;;;;
2024/01/27 19:32:20;;;;;;;;;;;;;;;;;;;;;
2024/01/27 19:37:13;;;;;;;;;;;;;;;;;;;;;
2024/01/27 19:41:37;;;;;;;;;;;;;;;;;;;;;
2024/01/27 19:45:21;;;;;;;;;;;;;;;;;;;;;
2024/01/27 19:48:56;;;;;;;27.30;11.10;;;;;;;5.14;100.00;102048.21;109825;1266;22025;-78
2024/01/27 19:52:23;;;;;;;29.40;11.00;;;;;;;5.19;100.00;102052.08;110016;1266;22551;-80
2024/01/27 19:56:43;;;;;;;32.40;14.50;;;;;;;5.16;100.00;102049.97;110315;1263;22451;-78
2024/01/27 20:00:29;;;;;;;;;;;;;;;;;;;;;
2024/01/27 20:03:57;;;;;;;27.50;13.60;;;;;;;5.25;100.00;102070.97;110447;1263;22026;-79
2024/01/27 20:07:00;;;;;;;;;;;;;;;;;;;;;
2024/01/27 20:10:16;;;;;;;28.10;12.60;;;;;;;5.22;100.00;102079.04;109635;1268;22981;-78
2024/01/27 20:13:34;;;;;;;36.90;16.60;;;;;;;5.21;100.00;102079.71;109753;1266;21981;-80
2024/01/27 20:16:46;;;;;;;;;;;;;;;;;;;;;
2024/01/27 20:19:25;;;;;;;;;;;;;;;5.19;100.00;102086.07;110447;1263;24427;-79
2024/01/27 20:26:51;;;;;;;38.80;16.70;;;;;;;5.15;100.00;102091.89;110560;1258;22040;-78
2024/01/27 20:29:36;;;;;;;36.30;16.10;;;;;;;5.20;100.00;102095.77;109519;1268;22050;-79
2024/01/27 20:32:25;;;;;;;38.90;15.70;;;;;;;5.24;100.00;102103.39;109728;1263;22731;-78
2024/01/27 20:35:11;;;;;;;27.00;14.00;;;;;;;5.27;100.00;102107.73;109893;1263;21986;-78
2024/01/27 20:38:26;;;;;;;31.90;14.30;;;;;;;5.31;100.00;102104.86;109893;1263;22090;-79
2024/01/27 20:41:49;;;;;;;57.30;33.10;;;;;;;5.29;100.00;102108.46;110076;1264;22972;-78
2024/01/27 20:46:17;;;;;;;;;;;;;;;;;;;;;
2024/01/27 20:49:51;;;;;;;;;;;;;;;;;;;;;
2024/01/27 20:52:29;;;;;;;30.10;13.60;;;;;;;5.30;100.00;102133.49;109298;1271;21980;-79
2024/01/27 20:55:19;;;;;;;29.80;13.70;;;;;;;5.35;100.00;102135.98;109965;1265;23648;-78
2024/01/27 20:58:40;;;;;;;;;;;;;;;;;;;;;
2024/01/27 21:01:52;;;;;;;;;;;;;;;;;;;;;
2024/01/27 21:05:05;;;;;;;;;;;;;;;5.36;100.00;102159.30;110681;1256;21970;-77
2024/01/27 21:12:58;;;;;;;32.70;16.30;;;;;;;5.24;100.00;102168.98;110611;1263;23632;-79
2024/01/27 21:16:02;;;;;;;37.00;15.70;;;;;;;5.27;100.00;102165.22;110161;1263;21987;-78